createdAt,value
2023-05-16T00:01:08.429Z,11.60
2023-05-16T00:04:09.418Z,12.00
2023-05-16T00:07:10.793Z,14.77
2023-05-16T00:10:12.913Z,12.48
2023-05-16T00:13:13.935Z,12.18
2023-05-16T00:16:15.226Z,17.42
2023-05-16T00:19:16.298Z,13.55
2023-05-16T00:22:17.886Z,13.27
2023-05-16T00:25:19.282Z,14.55
2023-05-16T00:28:20.275Z,13.82
2023-05-16T00:31:21.384Z,12.77
2023-05-16T00:34:23.220Z,14.93
2023-05-16T00:37:26.981Z,17.90
2023-05-16T00:40:28.620Z,14.73
2023-05-16T00:43:29.660Z,20.08
2023-05-16T00:46:30.553Z,12.65
2023-05-16T00:49:31.406Z,19.45
2023-05-16T00:52:33.937Z,12.80
2023-05-16T00:55:36.060Z,13.98
2023-05-16T00:58:37.876Z,13.65
2023-05-16T01:01:40.279Z,15.98
2023-05-16T01:04:43.757Z,12.52
2023-05-16T01:07:45.132Z,12.50
2023-05-16T01:11:12.473Z,13.93
2023-05-16T01:17:44.461Z,10.82
2023-05-16T01:21:09.642Z,10.73
2023-05-16T01:24:40.165Z,10.68
2023-05-16T01:27:43.097Z,10.93
2023-05-16T01:30:45.181Z,12.43
2023-05-16T01:33:47.171Z,11.40
2023-05-16T01:37:17.133Z,10.98
2023-05-16T01:41:08.413Z,12.13
2023-05-16T01:44:25.194Z,10.98
2023-05-16T01:47:30.833Z,13.63
2023-05-16T01:50:43.994Z,11.13
2023-05-16T01:53:45.716Z,12.30
2023-05-16T01:56:53.722Z,11.57
2023-05-16T01:59:55.046Z,11.27
2023-05-16T02:02:56.048Z,11.93
2023-05-16T02:05:58.259Z,13.00
2023-05-16T02:08:59.166Z,16.02
2023-05-16T02:12:00.911Z,17.15
2023-05-16T02:15:03.739Z,14.48
2023-05-16T02:18:04.750Z,13.85
2023-05-16T02:21:06.085Z,12.68
2023-05-16T02:24:07.115Z,12.77
2023-05-16T02:27:08.353Z,18.15
2023-05-16T02:30:13.203Z,16.40
2023-05-16T02:33:14.375Z,15.85
2023-05-16T02:36:15.273Z,22.45
2023-05-16T02:39:17.156Z,15.18
2023-05-16T02:42:18.364Z,16.98
2023-05-16T02:45:19.639Z,19.70
2023-05-16T02:48:21.003Z,21.08
2023-05-16T02:51:24.223Z,25.77
2023-05-16T02:54:25.557Z,23.95
2023-05-16T02:57:26.599Z,19.38
2023-05-16T03:00:27.380Z,21.83
2023-05-16T03:03:30.281Z,22.98
2023-05-16T03:06:31.688Z,26.83
2023-05-16T03:09:34.565Z,23.90
2023-05-16T03:12:35.581Z,24.85
2023-05-16T03:15:36.371Z,33.50
2023-05-16T03:18:37.276Z,25.05
2023-05-16T03:21:38.522Z,25.75
2023-05-16T03:24:40.561Z,25.08
2023-05-16T03:27:41.604Z,30.08
2023-05-16T03:30:42.492Z,32.40
2023-05-16T03:33:43.912Z,34.72
2023-05-16T03:36:44.971Z,31.60
2023-05-16T03:39:46.098Z,32.83
2023-05-16T03:42:47.130Z,30.48
2023-05-16T03:45:47.966Z,30.50
2023-05-16T03:48:49.409Z,31.80
2023-05-16T03:51:50.280Z,30.42
2023-05-16T03:54:51.300Z,31.85
2023-05-16T03:57:53.372Z,33.15
2023-05-16T04:00:54.471Z,27.77
2023-05-16T04:03:55.954Z,30.35
2023-05-16T04:06:56.825Z,27.63
2023-05-16T04:09:58.955Z,23.85
2023-05-16T04:12:59.992Z,26.85
2023-05-16T04:16:01.435Z,29.90
2023-05-16T04:19:02.394Z,26.70
2023-05-16T04:22:03.378Z,29.10
2023-05-16T04:25:05.130Z,26.30
2023-05-16T04:28:06.601Z,29.73
2023-05-16T04:31:08.530Z,30.05
2023-05-16T04:34:09.785Z,30.38
2023-05-16T04:37:11.115Z,33.90
2023-05-16T04:40:13.389Z,33.17
2023-05-16T04:43:14.506Z,44.17
2023-05-16T04:46:16.314Z,40.25
2023-05-16T04:49:17.292Z,49.13
2023-05-16T04:52:18.118Z,48.15
2023-05-16T04:55:19.306Z,27.13
2023-05-16T04:58:20.222Z,30.27
2023-05-16T05:01:21.662Z,30.15
2023-05-16T05:04:23.378Z,35.05
2023-05-16T05:07:28.289Z,30.35
2023-05-16T05:10:29.262Z,33.38
2023-05-16T05:13:30.215Z,35.78
2023-05-16T05:16:31.327Z,38.28
2023-05-16T05:19:32.194Z,36.83
2023-05-16T05:22:33.453Z,39.80
2023-05-16T05:25:37.898Z,38.58
2023-05-16T05:28:39.398Z,37.60
2023-05-16T05:31:41.110Z,37.95
2023-05-16T05:34:42.000Z,32.40
2023-05-16T05:37:43.280Z,32.70
2023-05-16T05:40:44.577Z,32.35
2023-05-16T05:43:45.540Z,28.40
2023-05-16T05:46:47.114Z,23.48
2023-05-16T05:49:48.741Z,20.20
2023-05-16T05:52:49.531Z,19.67
2023-05-16T05:55:50.484Z,16.95
2023-05-16T05:58:52.016Z,16.40
2023-05-16T06:01:53.722Z,14.07
2023-05-16T06:04:54.737Z,17.15
2023-05-16T06:07:56.259Z,13.15
2023-05-16T06:10:57.124Z,15.68
2023-05-16T06:13:58.048Z,16.38
2023-05-16T06:16:59.282Z,14.55
2023-05-16T06:20:00.071Z,18.05
2023-05-16T06:23:01.783Z,19.42
2023-05-16T06:26:04.135Z,24.42
2023-05-16T06:29:05.372Z,21.55
2023-05-16T06:32:06.561Z,23.30
2023-05-16T06:35:09.605Z,24.10
2023-05-16T06:38:10.388Z,17.88
2023-05-16T06:41:11.571Z,18.65
2023-05-16T06:44:12.457Z,18.05
2023-05-16T06:47:13.629Z,18.40
2023-05-16T06:50:15.119Z,20.63
2023-05-16T06:53:15.988Z,20.92
2023-05-16T06:56:17.204Z,25.45
2023-05-16T06:59:17.920Z,24.92
2023-05-16T07:02:19.294Z,23.48
2023-05-16T07:05:20.561Z,18.55
2023-05-16T07:08:26.215Z,21.30
2023-05-16T07:11:27.760Z,24.73
2023-05-16T07:17:48.458Z,24.20
2023-05-16T07:27:18.440Z,23.33
2023-05-16T07:39:40.727Z,27.52
2023-05-16T07:52:25.438Z,28.38
2023-05-16T08:07:34.009Z,26.83
2023-05-16T08:25:30.739Z,23.35
2023-05-16T08:39:46.608Z,18.38
2023-05-16T08:55:12.500Z,17.80
2023-05-16T09:10:49.904Z,16.35
2023-05-16T09:25:33.667Z,18.98
2023-05-16T09:41:28.316Z,18.77
2023-05-16T09:57:52.894Z,20.30
2023-05-16T10:00:56.496Z,15.35
2023-05-16T10:03:57.823Z,15.98
2023-05-16T10:07:07.086Z,15.75
2023-05-16T10:10:09.791Z,19.13
2023-05-16T10:30:14.803Z,23.10
2023-05-16T10:47:38.799Z,26.25
2023-05-16T11:06:12.119Z,25.48
2023-05-16T11:21:20.349Z,31.25
2023-05-16T11:54:38.080Z,35.25
2023-05-16T12:13:38.982Z,32.78
2023-05-16T12:29:32.090Z,21.85
2023-05-16T12:44:58.105Z,20.63
2023-05-16T12:58:52.874Z,19.83
2023-05-16T13:01:53.981Z,21.30
2023-05-16T13:04:55.236Z,23.70
2023-05-16T13:07:56.549Z,17.75
2023-05-16T13:10:57.985Z,19.73
2023-05-16T13:13:59.124Z,20.05
2023-05-16T13:17:00.859Z,19.38
2023-05-16T13:20:03.829Z,23.63
2023-05-16T13:23:05.629Z,20.23
2023-05-16T13:26:07.167Z,20.15
2023-05-16T13:29:10.007Z,19.70
2023-05-16T13:32:11.307Z,22.98
2023-05-16T13:35:12.476Z,19.92
2023-05-16T13:38:13.657Z,21.00
2023-05-16T13:41:14.986Z,22.92
2023-05-16T13:44:16.479Z,22.02
2023-05-16T13:47:17.816Z,25.58
2023-05-16T13:50:19.357Z,20.15
2023-05-16T13:53:20.673Z,20.02
2023-05-16T13:56:22.316Z,20.80
2023-05-16T13:59:44.815Z,20.85
2023-05-16T14:02:44.933Z,20.02
2023-05-16T14:05:46.184Z,21.67
2023-05-16T14:08:47.536Z,21.30
2023-05-16T14:11:48.507Z,19.42
2023-05-16T14:14:49.791Z,21.73
2023-05-16T14:17:50.810Z,19.50
2023-05-16T14:20:52.466Z,20.48
2023-05-16T14:23:53.704Z,22.90
2023-05-16T14:26:58.613Z,20.13
2023-05-16T14:29:59.968Z,20.67
2023-05-16T14:33:01.470Z,20.98
2023-05-16T14:36:02.881Z,22.33
2023-05-16T14:39:04.445Z,22.40
2023-05-16T14:42:08.409Z,23.00
2023-05-16T14:45:10.002Z,19.70
2023-05-16T14:48:10.906Z,20.63
2023-05-16T14:51:12.279Z,20.02
2023-05-16T14:54:13.583Z,21.27
2023-05-16T14:57:14.575Z,21.80
2023-05-16T15:00:17.605Z,20.63
2023-05-16T15:03:19.304Z,19.73
2023-05-16T15:06:20.396Z,18.85
2023-05-16T15:09:21.915Z,18.63
2023-05-16T15:12:23.154Z,18.25
2023-05-16T15:15:24.607Z,20.77
2023-05-16T15:18:26.132Z,20.10
2023-05-16T15:21:27.635Z,18.38
2023-05-16T15:24:28.531Z,16.90
2023-05-16T15:27:30.427Z,17.55
2023-05-16T15:30:31.826Z,19.92
2023-05-16T15:33:32.801Z,20.27
2023-05-16T15:36:33.780Z,22.25
2023-05-16T15:39:34.830Z,20.08
2023-05-16T15:42:36.033Z,19.20
2023-05-16T15:45:40.126Z,17.73
2023-05-16T15:48:44.806Z,18.45
2023-05-16T15:51:45.839Z,15.38
2023-05-16T15:54:49.813Z,14.65
2023-05-16T15:57:50.924Z,16.33
2023-05-16T16:00:52.173Z,15.68
2023-05-16T16:03:53.287Z,15.52
2023-05-16T16:06:54.432Z,13.55
2023-05-16T16:09:55.377Z,10.85
2023-05-16T16:13:03.895Z,10.43
2023-05-16T16:16:06.051Z,10.32
2023-05-16T16:19:08.549Z,9.20
2023-05-16T16:22:09.927Z,9.02
2023-05-16T16:25:11.069Z,9.85
2023-05-16T16:28:12.033Z,9.90
2023-05-16T16:31:13.574Z,9.38
2023-05-16T16:34:15.028Z,9.27
2023-05-16T16:37:16.854Z,10.35
2023-05-16T16:40:18.150Z,9.63
2023-05-16T16:43:19.060Z,9.85
2023-05-16T16:46:20.955Z,11.48
2023-05-16T16:49:22.280Z,9.65
2023-05-16T16:52:23.120Z,9.55
2023-05-16T16:55:24.027Z,8.60
2023-05-16T16:58:24.922Z,8.40
2023-05-16T17:01:28.982Z,8.52
2023-05-16T17:04:31.767Z,8.40
2023-05-16T17:07:33.288Z,13.68
2023-05-16T17:10:34.551Z,13.68
2023-05-16T17:13:37.884Z,9.85
2023-05-16T17:16:41.032Z,10.68
2023-05-16T17:19:43.107Z,11.40
2023-05-16T17:22:44.984Z,13.25
2023-05-16T17:25:46.318Z,11.73
2023-05-16T17:28:47.376Z,14.20
2023-05-16T17:31:48.533Z,12.02
2023-05-16T17:34:50.323Z,11.95
2023-05-16T17:37:51.800Z,12.23
2023-05-16T17:40:53.123Z,11.35
2023-05-16T17:43:54.312Z,11.52
2023-05-16T17:46:56.048Z,12.07
2023-05-16T17:49:57.311Z,11.27
2023-05-16T17:52:59.038Z,10.25
2023-05-16T17:56:00.609Z,10.32
2023-05-16T17:59:01.940Z,10.50
2023-05-16T18:02:04.296Z,10.40
2023-05-16T18:05:06.071Z,9.57
2023-05-16T18:08:08.620Z,10.75
2023-05-16T18:11:10.363Z,9.38
2023-05-16T18:14:14.293Z,8.93
2023-05-16T18:17:15.584Z,7.10
2023-05-16T18:20:16.735Z,5.75
2023-05-16T18:23:17.935Z,5.97
2023-05-16T18:26:19.557Z,7.13
2023-05-16T18:29:21.777Z,10.48
2023-05-16T18:32:22.563Z,5.40
2023-05-16T18:35:24.003Z,7.28
2023-05-16T18:38:32.593Z,6.85
2023-05-16T18:41:34.647Z,5.72
2023-05-16T18:44:36.541Z,6.05
2023-05-16T18:47:37.550Z,5.43
2023-05-16T18:50:39.295Z,5.47
2023-05-16T18:53:40.617Z,9.65
2023-05-16T18:56:43.204Z,4.85
2023-05-16T18:59:44.296Z,6.40
2023-05-16T19:02:49.034Z,6.20
2023-05-16T19:05:50.278Z,4.13
2023-05-16T19:08:51.357Z,5.75
2023-05-16T19:11:52.627Z,6.75
2023-05-16T19:14:53.463Z,5.05
2023-05-16T19:17:54.958Z,4.72
2023-05-16T19:20:56.448Z,4.00
2023-05-16T19:23:57.768Z,6.93
2023-05-16T19:26:59.230Z,5.55
2023-05-16T19:30:00.673Z,4.90
2023-05-16T19:33:02.040Z,6.45
2023-05-16T19:36:06.078Z,7.38
2023-05-16T19:39:07.309Z,4.20
2023-05-16T19:42:08.711Z,5.13
2023-05-16T19:45:10.309Z,12.85
2023-05-16T19:48:11.441Z,3.60
2023-05-16T19:51:12.850Z,4.43
2023-05-16T19:54:14.132Z,4.03
2023-05-16T19:57:15.431Z,5.15
2023-05-16T20:00:16.913Z,4.38
2023-05-16T20:03:18.263Z,10.18
2023-05-16T20:06:19.523Z,5.95
2023-05-16T20:09:20.340Z,4.20
2023-05-16T20:12:21.603Z,4.97
2023-05-16T20:15:23.058Z,9.10
2023-05-16T20:18:23.987Z,6.85
2023-05-16T20:21:25.377Z,4.45
2023-05-16T20:24:26.385Z,5.15
2023-05-16T20:27:28.805Z,4.05
2023-05-16T20:30:32.616Z,10.13
2023-05-16T20:33:34.045Z,5.47
2023-05-16T20:36:35.202Z,7.47
2023-05-16T20:39:36.724Z,7.55
2023-05-16T20:42:37.918Z,6.22
2023-05-16T20:45:38.915Z,4.25
2023-05-16T20:48:40.290Z,4.75
2023-05-16T20:51:41.436Z,8.80
2023-05-16T20:54:42.475Z,4.60
2023-05-16T20:57:43.897Z,4.60
2023-05-16T21:00:45.311Z,9.10
2023-05-16T21:03:46.059Z,5.68
2023-05-16T21:06:47.545Z,5.40
2023-05-16T21:09:48.693Z,5.03
2023-05-16T21:12:50.497Z,6.18
2023-05-16T21:15:52.048Z,3.80
2023-05-16T21:18:53.481Z,9.82
2023-05-16T21:21:54.844Z,5.70
2023-05-16T21:24:55.893Z,6.43
2023-05-16T21:27:56.729Z,16.55
2023-05-16T21:30:57.713Z,3.28
2023-05-16T21:33:58.659Z,5.22
2023-05-16T21:37:00.211Z,6.68
2023-05-16T21:40:01.306Z,5.35
2023-05-16T21:43:02.360Z,5.80
2023-05-16T21:46:03.495Z,5.65
2023-05-16T21:49:04.350Z,5.88
2023-05-16T21:52:07.421Z,10.75
2023-05-16T21:55:09.855Z,4.82
2023-05-16T21:58:10.893Z,4.63
2023-05-16T22:01:12.373Z,8.20
2023-05-16T22:04:14.202Z,4.82
2023-05-16T22:07:15.560Z,5.20
2023-05-16T22:10:17.159Z,5.07
2023-05-16T22:13:20.287Z,3.90
2023-05-16T22:16:21.687Z,4.65
2023-05-16T22:19:22.985Z,7.85
2023-05-16T22:22:24.251Z,5.18
2023-05-16T22:25:25.689Z,4.18
2023-05-16T22:28:26.992Z,3.78
2023-05-16T22:31:28.117Z,4.35
2023-05-16T22:34:29.104Z,5.35
2023-05-16T22:37:30.192Z,5.47
2023-05-16T22:40:31.527Z,4.18
2023-05-16T22:43:32.956Z,4.38
2023-05-16T22:46:34.178Z,4.50
2023-05-16T22:49:35.771Z,5.97
2023-05-16T22:52:41.416Z,3.13
2023-05-16T22:55:42.373Z,5.55
2023-05-16T22:58:43.211Z,5.32
2023-05-16T23:01:44.164Z,8.25
2023-05-16T23:04:44.893Z,7.22
2023-05-16T23:07:46.502Z,3.70
2023-05-16T23:10:47.696Z,8.43
2023-05-16T23:13:49.095Z,3.42
2023-05-16T23:16:50.096Z,4.07
2023-05-16T23:19:51.826Z,4.68
2023-05-16T23:22:52.861Z,5.00
2023-05-16T23:25:53.670Z,6.15
2023-05-16T23:28:54.891Z,4.25
2023-05-16T23:31:55.889Z,3.42
2023-05-16T23:34:57.434Z,8.32
2023-05-16T23:38:00.182Z,3.88
2023-05-16T23:41:01.034Z,6.43
2023-05-16T23:44:02.252Z,5.65
2023-05-16T23:47:03.597Z,9.32
2023-05-16T23:50:06.148Z,5.50
2023-05-16T23:53:07.238Z,6.55
2023-05-16T23:56:08.283Z,4.45
2023-05-16T23:59:09.579Z,5.45
